Time;durP1;ratioP1;P1;durP2;ratioP2;P2;SDS_P1;SDS_P2;PMS_P1;PMS_P2;Temp;Humidity;BMP_temperature;BMP_pressure;BME280_temperature;BME280_humidity;BME280_pressure;Samples;Min_cycle;Max_cycle;Signal;HPM_P1;HPM_P2
2022/05/23 00:02:18;;;;;;;13.70;9.82;;;;;;;24.07;76.06;100234.50;4896261;29;20053;-65
2022/05/23 00:04:47;;;;;;;13.75;10.10;;;;;;;24.08;75.61;100238.94;4896063;29;20063;-65
2022/05/23 00:07:23;;;;;;;12.27;9.85;;;;;;;24.15;75.31;100234.22;4896210;29;20056;-65
2022/05/23 00:09:51;;;;;;;15.45;10.05;;;;;;;24.19;74.88;100222.28;4896484;29;20056;-65
2022/05/23 00:12:20;;;;;;;12.32;9.75;;;;;;;24.19;74.02;100220.28;4895671;29;20044;-65
2022/05/23 00:14:51;;;;;;;12.73;9.40;;;;;;;24.06;74.76;100225.31;4895924;29;20060;-65
2022/05/23 00:17:20;;;;;;;12.68;9.35;;;;;;;24.02;74.73;100221.69;4896807;29;20048;-65
2022/05/23 00:19:48;;;;;;;13.98;9.55;;;;;;;23.97;74.96;100222.81;4896331;29;20424;-65
2022/05/23 00:22:18;;;;;;;11.27;8.95;;;;;;;24.02;74.11;100221.69;4896337;29;20068;-65
2022/05/23 00:24:46;;;;;;;10.15;8.77;;;;;;;23.95;73.56;100200.03;4896614;29;20523;-65
2022/05/23 00:27:19;;;;;;;10.40;8.68;;;;;;;23.83;73.48;100191.91;4896728;29;20051;-65
2022/05/23 00:29:50;;;;;;;10.43;8.85;;;;;;;23.76;74.31;100190.63;4896171;29;20515;-65
2022/05/23 00:35:18;;;;;;;11.40;9.23;;;;;;;23.69;75.27;100186.94;4880035;29;20053;-65
2022/05/23 00:37:53;;;;;;;11.40;8.95;;;;;;;23.66;75.54;100196.09;4879963;29;20493;-65
2022/05/23 00:40:29;;;;;;;11.13;9.07;;;;;;;23.61;76.32;100186.84;4882633;29;20057;-65
2022/05/23 00:43:14;;;;;;;13.77;9.60;;;;;;;23.60;76.18;100184.44;4900255;29;20067;-65
2022/05/23 00:45:52;;;;;;;14.45;10.07;;;;;;;23.62;76.22;100184.88;4900169;29;20543;-65
2022/05/23 00:48:24;;;;;;;11.00;8.85;;;;;;;23.62;76.47;100170.91;4883269;29;20063;-65
2022/05/23 00:50:55;;;;;;;11.18;9.13;;;;;;;23.74;75.68;100172.66;4900015;29;20049;-65
2022/05/23 00:53:34;;;;;;;14.05;10.38;;;;;;;23.71;76.05;100179.00;4899920;29;20061;-65
2022/05/23 00:56:06;;;;;;;11.52;8.50;;;;;;;23.66;76.27;100176.53;4882538;29;20044;-65
2022/05/23 00:58:42;;;;;;;9.90;8.82;;;;;;;23.58;76.98;100176.47;4898991;29;20060;-65
2022/05/23 01:01:15;;;;;;;12.68;9.55;;;;;;;23.62;76.39;100184.88;4899956;29;20053;-65
2022/05/23 01:03:46;;;;;;;13.50;9.68;;;;;;;23.65;76.88;100181.31;4900051;29;20405;-65
2022/05/23 01:06:16;;;;;;;11.55;10.23;;;;;;;23.70;77.21;100171.81;4868866;29;20052;-65
2022/05/23 01:08:54;;;;;;;13.48;10.23;;;;;;;23.72;77.66;100183.41;4882294;29;20056;-65
2022/05/23 01:11:23;;;;;;;14.95;9.93;;;;;;;23.75;78.13;100186.25;4897873;29;20063;-65
2022/05/23 01:13:53;;;;;;;13.40;10.40;;;;;;;23.73;77.70;100174.66;4882462;29;20056;-65
2022/05/23 01:16:23;;;;;;;13.30;10.35;;;;;;;23.75;77.49;100169.47;4882904;29;20059;-65
2022/05/23 01:18:55;;;;;;;13.45;10.48;;;;;;;23.73;78.20;100176.63;4881850;29;20063;-66
2022/05/23 01:21:34;;;;;;;13.52;10.70;;;;;;;23.80;77.25;100179.50;4899428;29;20061;-65
2022/05/23 01:24:06;;;;;;;14.57;10.50;;;;;;;23.82;77.79;100174.34;4882470;29;20509;-65
2022/05/23 01:26:41;;;;;;;12.43;9.80;;;;;;;24.06;76.18;100169.44;4882581;29;20049;-65
2022/05/23 01:29:15;;;;;;;13.77;9.32;;;;;;;24.23;75.06;100182.00;4882513;29;20053;-65
2022/05/23 01:31:49;;;;;;;14.73;10.40;;;;;;;24.08;76.19;100178.25;4898038;29;20053;-65
2022/05/23 01:34:27;;;;;;;15.05;10.88;;;;;;;23.99;77.69;100180.50;4881952;29;20056;-65
2022/05/23 01:37:00;;;;;;;13.10;11.10;;;;;;;23.92;77.11;100186.03;4882041;29;20052;-65
2022/05/23 01:39:34;;;;;;;13.18;10.63;;;;;;;23.90;77.27;100180.81;4882190;29;20056;-65
2022/05/23 01:42:03;;;;;;;14.27;11.07;;;;;;;23.81;77.92;100183.94;4881861;29;20061;-65
2022/05/23 01:44:32;;;;;;;14.15;11.77;;;;;;;23.95;77.25;100188.84;4882378;29;20063;-65
2022/05/23 01:47:17;;;;;;;14.55;11.07;;;;;;;23.98;76.48;100178.91;4882175;29;20405;-65
2022/05/23 01:49:59;;;;;;;14.95;10.45;;;;;;;24.07;76.18;100175.81;4898037;29;20068;-65
2022/05/23 01:52:40;;;;;;;12.85;10.18;;;;;;;24.08;76.43;100167.06;4877956;29;20057;-65
2022/05/23 01:55:24;;;;;;;13.88;9.70;;;;;;;24.04;76.70;100185.75;4878343;29;20073;-65
2022/05/23 01:58:07;;;;;;;13.02;10.07;;;;;;;23.96;76.85;100172.91;4878166;29;20060;-65
2022/05/23 02:03:30;;;;;;;15.25;10.13;;;;;;;24.03;76.17;100161.78;4877668;29;20049;-65
2022/05/23 02:05:59;;;;;;;12.35;9.88;;;;;;;23.99;76.59;100156.16;4878868;29;20485;-65
2022/05/23 02:08:27;;;;;;;14.55;10.60;;;;;;;23.83;77.92;100156.41;4875319;29;20753;-65
2022/05/23 02:10:55;;;;;;;15.82;9.95;;;;;;;23.99;76.63;100152.56;4879610;29;20057;-65
2022/05/23 02:13:36;;;;;;;12.32;9.95;;;;;;;23.81;77.69;100158.78;4878024;29;20045;-65
2022/05/23 02:16:05;;;;;;;12.32;10.68;;;;;;;23.59;79.03;100152.94;4878194;29;20057;-65
2022/05/23 02:18:43;;;;;;;11.57;10.18;;;;;;;23.45;79.29;100144.34;4878603;29;20540;-65
2022/05/23 02:21:12;;;;;;;12.48;10.38;;;;;;;23.22;80.52;100136.88;4878681;29;20057;-65
2022/05/23 02:23:40;;;;;;;12.75;9.45;;;;;;;23.07;81.23;100133.88;4877662;29;20056;-66
2022/05/23 02:26:09;;;;;;;11.63;9.65;;;;;;;23.14;80.80;100132.34;4879673;29;20060;-65
2022/05/23 02:28:54;;;;;;;13.50;10.00;;;;;;;23.16;81.03;100135.59;4877790;29;20512;-65
2022/05/23 02:31:28;;;;;;;12.15;10.18;;;;;;;23.12;81.28;100129.94;4877777;29;20049;-65
2022/05/23 02:34:03;;;;;;;13.95;10.10;;;;;;;23.35;79.70;100117.91;4879972;29;20056;-65
2022/05/23 02:36:37;;;;;;;14.98;10.30;;;;;;;23.43;78.94;100121.59;4879206;29;20053;-65
2022/05/23 02:39:06;;;;;;;13.25;10.25;;;;;;;23.59;78.04;100113.84;4878320;29;20040;-65
2022/05/23 02:41:37;;;;;;;15.05;10.70;;;;;;;23.55;78.11;100121.34;4877507;29;20053;-65
2022/05/23 02:44:06;;;;;;;13.85;10.60;;;;;;;23.38;79.02;100113.56;4882539;29;20053;-65
2022/05/23 02:46:34;;;;;;;15.15;10.63;;;;;;;23.22;79.87;100106.19;4893786;29;20061;-65
2022/05/23 02:49:11;;;;;;;12.30;10.13;;;;;;;23.05;80.57;100107.53;4877518;29;20056;-65
2022/05/23 02:51:42;;;;;;;13.57;9.80;;;;;;;22.96;81.49;100096.63;4877156;29;20056;-65
2022/05/23 02:54:12;;;;;;;13.40;10.27;;;;;;;22.93;81.96;100091.84;4896381;29;20056;-65
2022/05/23 02:56:45;;;;;;;11.57;10.13;;;;;;;22.95;81.71;100103.41;4895931;29;20048;-65
2022/05/23 02:59:17;;;;;;;12.85;10.18;;;;;;;22.97;81.68;100126.16;4896604;29;20048;-65
2022/05/23 03:04:40;;;;;;;13.82;9.80;;;;;;;23.15;79.82;100065.00;4880575;29;20052;-65
2022/05/23 03:07:08;;;;;;;13.50;9.68;;;;;;;23.19;79.54;100107.72;4880043;29;20067;-65
2022/05/23 03:09:36;;;;;;;11.30;9.20;;;;;;;23.27;78.95;100105.81;4895817;29;20051;-65
2022/05/23 03:12:15;;;;;;;13.85;10.27;;;;;;;23.35;78.26;100107.56;4879865;29;20060;-65
2022/05/23 03:14:43;;;;;;;11.82;9.68;;;;;;;23.41;78.68;100115.59;4896151;29;20064;-65
2022/05/23 03:17:13;;;;;;;12.13;9.75;;;;;;;23.45;79.40;100122.84;4897412;29;20049;-65
2022/05/23 03:19:45;;;;;;;10.25;8.90;;;;;;;23.61;78.15;100117.03;4895413;29;20389;-65
2022/05/23 03:27:49;;;;;;;12.70;10.63;;;;;;;23.44;78.88;100048.66;4895939;29;20075;-65
2022/05/23 03:30:25;;;;;;;13.27;9.30;;;;;;;23.61;77.74;100046.44;4880351;29;20049;-65
2022/05/23 03:32:57;;;;;;;12.02;9.02;;;;;;;23.44;78.03;100075.75;4895579;29;20056;-65
2022/05/23 03:35:27;;;;;;;11.77;9.48;;;;;;;23.41;79.27;100090.47;4894744;29;20377;-65
2022/05/23 03:37:56;;;;;;;13.65;9.85;;;;;;;23.44;78.90;100112.03;4879838;29;20063;-65
2022/05/23 03:40:25;;;;;;;13.60;9.70;;;;;;;23.43;79.03;100113.22;4864522;29;20111;-65
2022/05/23 03:42:57;;;;;;;14.32;9.93;;;;;;;23.37;79.51;100098.00;4874114;29;20056;-65
2022/05/23 03:45:26;;;;;;;16.08;10.77;;;;;;;23.28;80.27;100090.69;4880142;29;20057;-65
2022/05/23 03:47:55;;;;;;;14.23;11.30;;;;;;;23.28;81.40;100101.06;4896833;29;20492;-65
2022/05/23 03:50:26;;;;;;;17.67;12.75;;;;;;;23.12;82.06;100084.50;4879484;29;20056;-65
2022/05/23 03:52:57;;;;;;;18.10;12.68;;;;;;;23.07;82.98;100091.22;4896199;29;20060;-65
2022/05/23 03:55:28;;;;;;;17.25;12.18;;;;;;;22.96;83.57;100088.28;4880297;29;20067;-65
2022/05/23 03:58:35;;;;;;;17.80;13.70;;;;;;;22.94;84.03;100088.63;4883747;29;20056;-65
2022/05/23 04:01:24;;;;;;;17.25;13.30;;;;;;;22.95;84.08;100092.25;4879432;29;20053;-65
2022/05/23 04:03:57;;;;;;;17.50;13.63;;;;;;;22.99;84.03;100095.09;4879630;29;20059;-65
2022/05/23 04:06:30;;;;;;;16.73;13.43;;;;;;;23.13;83.20;100100.06;4895934;29;20064;-65
2022/05/23 04:09:02;;;;;;;19.17;13.43;;;;;;;23.17;82.67;100104.50;4879846;29;20316;-65
2022/05/23 04:11:31;;;;;;;15.40;12.18;;;;;;;23.18;82.94;100108.88;4879803;29;20044;-65
2022/05/23 04:14:01;;;;;;;18.08;13.70;;;;;;;23.11;82.99;100108.81;4880706;29;20056;-65
2022/05/23 04:16:33;;;;;;;20.55;13.05;;;;;;;23.09;83.80;100114.78;4867619;29;20048;-65
2022/05/23 04:19:08;;;;;;;18.90;13.73;;;;;;;23.18;82.37;100122.06;4866029;29;20056;-65
2022/05/23 04:21:45;;;;;;;16.50;13.23;;;;;;;23.12;82.70;100120.78;4884420;29;20049;-65
2022/05/23 04:24:19;;;;;;;17.70;13.20;;;;;;;23.14;81.91;100121.19;4883460;29;20052;-65
2022/05/23 04:26:58;;;;;;;16.50;12.55;;;;;;;23.25;81.29;100119.34;4882201;29;20056;-65
2022/05/23 04:29:31;;;;;;;20.40;12.93;;;;;;;23.19;81.26;100115.28;4883376;29;20048;-65
2022/05/23 04:31:59;;;;;;;16.95;12.27;;;;;;;23.07;82.00;100128.28;4896605;29;20052;-65
2022/05/23 04:37:26;;;;;;;17.13;13.07;;;;;;;22.84;83.30;100121.97;4874111;29;20057;-64
2022/05/23 04:39:54;;;;;;;16.80;11.65;;;;;;;22.85;82.66;100115.19;4898135;29;20152;-65
2022/05/23 04:42:23;;;;;;;17.60;12.35;;;;;;;22.80;83.16;100117.16;4876423;29;20397;-65
2022/05/23 04:44:51;;;;;;;17.42;12.45;;;;;;;22.80;83.25;100108.78;4898977;29;20052;-64
2022/05/23 04:50:12;;;;;;;15.48;11.38;;;;;;;23.09;81.68;100108.38;4882927;29;20511;-72
2022/05/23 04:52:44;;;;;;;16.50;12.25;;;;;;;23.46;79.81;100106.91;4849269;29;20056;-72
2022/05/23 04:55:15;;;;;;;14.25;11.18;;;;;;;23.70;78.08;100110.38;4849514;29;20416;-72
2022/05/23 04:57:46;;;;;;;15.77;11.43;;;;;;;23.93;76.33;100104.63;4864042;29;20057;-72
2022/05/23 05:00:18;;;;;;;16.90;11.93;;;;;;;23.99;76.08;100113.44;4879535;29;20055;-71
2022/05/23 05:02:54;;;;;;;15.93;11.25;;;;;;;24.12;75.53;100114.81;4866278;29;20045;-72
2022/05/23 05:05:33;;;;;;;12.57;10.73;;;;;;;24.26;74.33;100104.94;4869929;29;20053;-72
2022/05/23 05:08:03;;;;;;;13.25;10.85;;;;;;;24.32;74.32;100106.19;4879024;29;20060;-72
2022/05/23 05:10:31;;;;;;;14.20;10.25;;;;;;;24.32;74.49;100108.19;4869665;29;20402;-71
2022/05/23 05:13:02;;;;;;;13.55;10.40;;;;;;;24.36;74.03;100106.22;4878626;29;20053;-72
2022/05/23 05:15:30;;;;;;;18.80;10.80;;;;;;;24.31;73.94;100101.81;4885042;29;20056;-71
2022/05/23 05:17:59;;;;;;;17.58;11.15;;;;;;;24.34;73.94;100103.81;4881530;29;20100;-71
2022/05/23 05:20:30;;;;;;;14.48;11.02;;;;;;;24.26;73.45;100099.34;4880930;29;20053;-71
2022/05/23 05:22:58;;;;;;;13.68;10.27;;;;;;;24.27;74.16;100103.75;4873601;29;20045;-72
2022/05/23 05:25:44;;;;;;;13.27;9.32;;;;;;;24.21;74.11;100094.13;4877917;29;20049;-71
2022/05/23 05:28:18;;;;;;;14.35;9.75;;;;;;;24.26;73.92;100088.19;4878721;29;20045;-71
2022/05/23 05:30:59;;;;;;;13.80;10.88;;;;;;;24.36;73.13;100090.25;4876090;29;20409;-72
2022/05/23 05:33:32;;;;;;;12.55;9.27;;;;;;;24.46;72.57;100088.75;4874791;29;20054;-72
2022/05/23 05:36:08;;;;;;;14.23;9.18;;;;;;;24.41;72.96;100080.72;4893206;29;20412;-72
2022/05/23 05:38:40;;;;;;;12.88;10.35;;;;;;;24.31;73.33;100065.47;4871456;29;20052;-72
2022/05/23 05:41:17;;;;;;;11.73;9.65;;;;;;;24.47;72.52;100061.56;4872633;29;20409;-72
2022/05/23 05:43:56;;;;;;;13.15;9.95;;;;;;;24.48;72.46;100063.19;4867286;29;20045;-71
2022/05/23 05:46:41;;;;;;;12.85;10.20;;;;;;;24.38;73.42;100092.66;4871250;29;20060;-72
2022/05/23 05:49:27;;;;;;;16.17;9.80;;;;;;;24.39;73.75;100097.88;4869679;29;20049;-72
2022/05/23 05:52:03;;;;;;;12.77;9.23;;;;;;;24.52;73.12;100094.75;4861011;29;20060;-71
2022/05/23 05:54:51;;;;;;;17.42;10.80;;;;;;;24.54;73.30;100100.78;4899091;29;20055;-72
2022/05/23 05:57:20;;;;;;;14.57;10.27;;;;;;;24.70;72.74;100103.31;4882130;29;20048;-72
2022/05/23 05:59:52;;;;;;;12.95;10.13;;;;;;;24.77;72.88;100092.16;4882239;29;20052;-72
2022/05/23 06:02:22;;;;;;;13.40;10.10;;;;;;;24.82;72.28;100096.59;4897108;29;20052;-71
2022/05/23 06:04:51;;;;;;;13.77;10.65;;;;;;;25.00;72.03;100096.72;4882104;29;20048;-72
2022/05/23 06:13:57;;;;;;;16.75;11.00;;;;;;;24.99;72.27;100092.31;4885951;29;20060;-72
2022/05/23 06:16:36;;;;;;;14.00;10.73;;;;;;;25.03;71.02;100092.34;4881773;29;20060;-72
2022/05/23 06:19:12;;;;;;;15.80;11.77;;;;;;;24.98;72.06;100087.91;4881837;29;20048;-72
2022/05/23 06:21:52;;;;;;;13.40;10.65;;;;;;;25.12;71.33;100094.78;4881682;29;20049;-72
2022/05/23 06:24:22;;;;;;;16.35;11.23;;;;;;;25.21;71.38;100093.22;4881650;29;20041;-72
2022/05/23 06:26:55;;;;;;;15.82;11.15;;;;;;;25.38;70.29;100107.69;4898398;29;20162;-72
2022/05/23 06:29:23;;;;;;;14.63;10.60;;;;;;;25.34;70.25;100104.88;4898225;29;20052;-72
2022/05/23 06:31:50;;;;;;;15.20;10.25;;;;;;;25.33;70.24;100094.06;4881489;29;20067;-72
2022/05/23 06:34:23;;;;;;;13.98;10.05;;;;;;;25.46;69.63;100097.34;4881582;29;20056;-72
2022/05/23 06:36:55;;;;;;;13.43;9.88;;;;;;;25.62;68.86;100091.41;4880523;29;20511;-72
2022/05/23 06:39:25;;;;;;;12.02;9.35;;;;;;;25.74;68.27;100095.81;4896948;29;20374;-71
2022/05/23 06:42:12;;;;;;;14.32;9.77;;;;;;;25.82;68.20;100102.25;4897697;29;20434;-72
2022/05/23 06:45:18;;;;;;;14.68;10.35;;;;;;;25.76;67.96;100107.47;4840214;29;20061;-72
2022/05/23 06:48:05;;;;;;;12.40;10.48;;;;;;;25.74;67.30;100110.66;4840132;29;20494;-72
2022/05/23 06:50:53;;;;;;;14.13;11.32;;;;;;;25.89;67.96;100119.91;4882614;29;20069;-72
2022/05/23 06:53:32;;;;;;;14.88;10.15;;;;;;;25.97;67.34;100115.09;4881085;29;20059;-72
2022/05/23 06:56:10;;;;;;;15.23;10.05;;;;;;;26.05;68.11;100109.50;4881134;29;20048;-72
2022/05/23 06:58:40;;;;;;;11.35;8.90;;;;;;;26.12;67.19;100112.31;4881061;29;20052;-72
2022/05/23 07:01:22;;;;;;;12.38;9.93;;;;;;;26.25;66.45;100119.16;4881123;29;20057;-72
2022/05/23 07:04:09;;;;;;;12.88;10.15;;;;;;;26.22;66.56;100131.16;4897799;29;20052;-72
2022/05/23 07:12:26;;;;;;;14.88;11.35;;;;;;;26.33;66.05;100138.81;4896419;29;20048;-71
2022/05/23 07:14:58;;;;;;;16.60;11.20;;;;;;;26.45;65.25;100126.38;4880956;29;20052;-72
2022/05/23 07:17:28;;;;;;;13.57;11.30;;;;;;;26.50;65.60;100124.00;4880758;29;20052;-72
2022/05/23 07:20:13;;;;;;;14.32;10.77;;;;;;;26.46;66.00;100126.00;4880802;29;20048;-72
2022/05/23 07:22:54;;;;;;;15.57;11.48;;;;;;;26.36;66.43;100135.19;4880788;29;20060;-72
2022/05/23 07:25:24;;;;;;;16.33;11.73;;;;;;;26.46;66.24;100137.22;4880601;29;20071;-72
2022/05/23 07:27:52;;;;;;;14.20;11.52;;;;;;;26.57;66.20;100137.19;4897204;29;20407;-72
2022/05/23 07:30:21;;;;;;;16.85;12.30;;;;;;;26.53;65.75;100123.19;4880548;29;20040;-72
2022/05/23 07:32:51;;;;;;;18.00;12.35;;;;;;;26.53;66.05;100137.22;4897319;29;20056;-72
2022/05/23 07:35:38;;;;;;;17.65;11.60;;;;;;;26.51;65.40;100133.19;4897235;29;20496;-72
2022/05/23 07:38:09;;;;;;;18.67;12.02;;;;;;;26.47;66.09;100127.59;4895996;29;20041;-72
2022/05/23 07:40:37;;;;;;;13.57;10.38;;;;;;;26.60;65.43;100118.75;4896076;29;20397;-72
2022/05/23 07:43:10;;;;;;;16.67;12.10;;;;;;;26.63;65.58;100120.78;4895935;29;20053;-72
2022/05/23 07:45:39;;;;;;;15.10;12.27;;;;;;;26.80;64.25;100122.75;4880433;29;20049;-72
2022/05/23 07:48:07;;;;;;;13.65;9.70;;;;;;;26.80;64.09;100122.75;4879757;29;20044;-72
2022/05/23 07:50:43;;;;;;;15.63;11.48;;;;;;;26.84;63.56;100120.72;4880209;29;20051;-72
2022/05/23 08:01:50;;;;;;;16.23;11.48;;;;;;;26.94;63.99;100107.13;4880278;29;20049;-72
2022/05/23 08:04:19;;;;;;;14.98;10.45;;;;;;;26.95;63.94;100111.53;4896975;29;20045;-71
2022/05/23 08:06:52;;;;;;;13.25;9.75;;;;;;;27.06;62.51;100111.47;4895734;29;20051;-71
2022/05/23 08:09:22;;;;;;;13.57;10.43;;;;;;;27.26;61.69;100106.22;4880034;29;20430;-70
2022/05/23 08:12:01;;;;;;;14.10;10.32;;;;;;;27.30;62.44;100100.56;4880283;29;20053;-71
2022/05/23 08:14:29;;;;;;;14.70;10.85;;;;;;;27.29;61.74;100102.59;4895644;29;20057;-71
2022/05/23 08:17:03;;;;;;;14.77;11.05;;;;;;;27.37;62.72;100100.56;4880149;29;20072;-71
2022/05/23 08:19:36;;;;;;;12.30;10.18;;;;;;;27.40;62.00;100101.72;4864560;29;20061;-71
2022/05/23 08:22:09;;;;;;;;;;;;;;;27.05;62.82;100102.28;4880682;29;20056;-71
2022/05/23 08:24:44;;;;;;;11.07;9.88;;;;;;;26.81;63.82;100098.28;4880144;29;19924;-71
2022/05/23 08:27:13;;;;;;;15.15;11.20;;;;;;;26.90;64.55;100103.47;4896789;29;20484;-71
2022/05/23 08:29:46;;;;;;;12.35;9.93;;;;;;;26.86;63.91;100105.47;4879889;29;20048;-71
2022/05/23 08:32:16;;;;;;;14.55;11.10;;;;;;;26.95;64.60;100103.09;4880033;29;20048;-71
2022/05/23 08:35:05;;;;;;;13.18;10.70;;;;;;;26.95;65.21;100103.91;4896265;29;20500;-71
2022/05/23 08:37:35;;;;;;;15.05;9.70;;;;;;;27.09;64.89;100102.25;4879974;29;20048;-71
2022/05/23 08:40:09;;;;;;;12.27;10.10;;;;;;;27.17;62.88;100100.25;4879979;29;20055;-71
2022/05/23 08:42:56;;;;;;;14.15;9.75;;;;;;;26.91;63.15;100097.50;4895520;29;20397;-71
2022/05/23 08:45:40;;;;;;;10.65;8.80;;;;;;;26.91;62.73;100093.84;4864310;29;20436;-71
2022/05/23 08:48:28;;;;;;;13.77;8.70;;;;;;;26.83;62.75;100084.63;4879901;29;20396;-71
2022/05/23 08:51:15;;;;;;;9.80;8.23;;;;;;;26.94;61.56;100081.84;4879784;29;20044;-71
2022/05/23 08:54:14;;;;;;;12.93;8.60;;;;;;;27.01;61.23;100079.03;4879651;29;20065;-71
2022/05/23 08:57:43;;;;;;;11.07;8.85;;;;;;;27.15;61.20;100082.97;4861582;29;20065;-71
2022/05/23 09:00:14;;;;;;;15.82;10.25;;;;;;;27.27;61.54;100074.09;4881016;29;20052;-71
2022/05/23 09:02:55;;;;;;;14.38;9.45;;;;;;;27.20;61.01;100089.00;4883222;29;20048;-71
2022/05/23 09:05:43;;;;;;;12.35;9.23;;;;;;;27.37;60.14;100083.72;4883084;29;20507;-71
2022/05/23 09:08:38;;;;;;;11.07;8.87;;;;;;;27.53;60.36;100083.22;4899955;29;20440;-71
2022/05/23 09:11:18;;;;;;;12.02;9.63;;;;;;;27.44;60.90;100083.66;4899715;29;20324;-70
2022/05/23 09:13:46;;;;;;;12.48;10.07;;;;;;;27.36;59.95;100084.88;4898369;29;20048;-71
2022/05/23 09:16:15;;;;;;;13.77;10.55;;;;;;;27.31;60.73;100079.69;4899685;29;20508;-71
2022/05/23 09:18:45;;;;;;;14.25;9.80;;;;;;;27.28;61.42;100086.97;4899622;29;20079;-71
2022/05/23 09:21:13;;;;;;;14.23;10.13;;;;;;;27.07;60.97;100080.19;4899689;29;20488;-71
2022/05/23 09:23:51;;;;;;;11.88;10.05;;;;;;;27.06;61.27;100089.03;4899681;29;20057;-71
2022/05/23 09:26:29;;;;;;;14.65;9.93;;;;;;;27.07;61.14;100083.00;4899581;29;20056;-71
2022/05/23 09:28:57;;;;;;;12.82;10.18;;;;;;;27.05;60.66;100085.44;4899440;29;20055;-71
2022/05/23 09:32:03;;;;;;;10.43;9.13;;;;;;;26.90;60.68;100079.03;4899302;29;20055;-71
2022/05/23 09:34:59;;;;;;;11.15;9.82;;;;;;;27.06;60.79;100081.41;4823092;29;20070;-71
2022/05/23 09:37:39;;;;;;;12.93;9.60;;;;;;;27.19;60.11;100078.16;4881022;29;20057;-71
2022/05/23 09:40:20;;;;;;;9.45;8.45;;;;;;;27.29;60.08;100063.28;4898119;29;20052;-71
2022/05/23 09:48:24;;;;;;;11.65;8.18;;;;;;;27.65;59.06;100065.09;4899214;29;20052;-71
2022/05/23 09:51:01;;;;;;;11.20;8.32;;;;;;;27.76;58.25;100060.22;4898794;29;20052;-71
2022/05/23 09:53:43;;;;;;;10.77;7.05;;;;;;;28.02;57.01;100063.63;4898788;29;20064;-71
2022/05/23 09:56:41;;;;;;;10.80;7.30;;;;;;;28.22;56.06;100049.06;4909264;29;20052;-70
2022/05/23 09:59:22;;;;;;;6.75;6.05;;;;;;;28.30;54.60;100047.00;4882543;29;20068;-71
2022/05/23 10:01:50;;;;;;;11.02;8.27;;;;;;;28.13;55.78;100041.06;4903649;29;20048;-71
2022/05/23 10:04:25;;;;;;;11.30;8.57;;;;;;;28.22;55.50;100051.88;4881665;29;20049;-70
2022/05/23 10:06:53;;;;;;;8.73;7.82;;;;;;;28.34;55.52;100044.94;4898698;29;20053;-71
2022/05/23 10:09:24;;;;;;;11.43;7.88;;;;;;;28.38;55.51;100053.34;4899696;29;20049;-71
2022/05/23 10:12:21;;;;;;;9.90;7.60;;;;;;;28.20;55.49;100042.22;4893579;29;20075;-71
2022/05/23 10:15:04;;;;;;;9.48;8.10;;;;;;;28.35;55.38;100037.31;4889455;29;20067;-71
2022/05/23 10:17:38;;;;;;;10.40;9.32;;;;;;;28.23;55.93;100036.59;4893551;29;20056;-71
2022/05/23 10:20:28;;;;;;;12.27;8.68;;;;;;;28.42;55.37;100037.22;4897896;29;20052;-71
2022/05/23 10:23:21;;;;;;;11.38;9.20;;;;;;;28.16;56.29;100034.59;4884621;29;20505;-71
2022/05/23 10:26:23;;;;;;;11.65;8.02;;;;;;;28.22;57.08;100032.19;4888796;29;20056;-71
2022/05/23 10:29:03;;;;;;;9.93;8.00;;;;;;;28.42;56.08;100031.59;4898399;29;20057;-71
2022/05/23 10:31:46;;;;;;;10.98;7.35;;;;;;;28.47;56.31;100035.97;4895971;29;20049;-71
2022/05/23 10:34:30;;;;;;;9.82;8.10;;;;;;;28.19;56.73;100041.41;4896047;29;20048;-71
2022/05/23 10:37:03;;;;;;;10.20;8.18;;;;;;;28.16;56.33;100037.41;4891333;29;20489;-71
2022/05/23 10:42:38;;;;;;;9.50;7.95;;;;;;;28.17;55.94;100036.22;4894864;29;20408;-71
2022/05/23 10:45:22;;;;;;;9.05;7.97;;;;;;;28.15;55.85;100035.81;4897209;29;20053;-71
2022/05/23 10:48:11;;;;;;;13.65;7.45;;;;;;;28.26;56.31;100032.16;4897286;29;20056;-71
2022/05/23 10:50:47;;;;;;;10.00;7.50;;;;;;;28.32;56.13;100030.50;4879056;29;20056;-71
2022/05/23 10:53:34;;;;;;;9.90;7.65;;;;;;;28.19;57.00;100029.38;4879051;29;20060;-71
2022/05/23 10:56:31;;;;;;;12.38;7.55;;;;;;;28.37;56.20;100035.66;4898337;29;20056;-72
2022/05/23 10:59:06;;;;;;;11.18;7.90;;;;;;;28.44;55.57;100021.53;4897698;29;20061;-71
2022/05/23 11:01:52;;;;;;;10.23;7.88;;;;;;;28.59;56.03;100018.53;4897723;29;20048;-72
2022/05/23 11:04:29;;;;;;;10.15;6.88;;;;;;;28.84;54.65;100021.09;4897090;29;20037;-72
2022/05/23 11:07:02;;;;;;;8.57;6.95;;;;;;;29.00;55.35;100027.38;4908251;29;20059;-72
2022/05/23 11:09:56;;;;;;;9.13;7.90;;;;;;;29.07;54.10;100021.63;4902670;29;20060;-72
2022/05/23 11:12:51;;;;;;;10.48;7.78;;;;;;;28.89;54.39;100025.50;4899279;29;20041;-72
2022/05/23 11:15:41;;;;;;;8.02;7.22;;;;;;;29.21;54.84;100015.03;4896037;29;20040;-72
2022/05/23 11:18:22;;;;;;;7.55;6.78;;;;;;;29.13;53.18;100022.00;4899086;29;20048;-72
2022/05/23 11:21:03;;;;;;;8.52;7.20;;;;;;;29.16;53.61;100010.66;4891744;29;20052;-72
2022/05/23 11:23:57;;;;;;;16.95;8.43;;;;;;;28.89;54.36;100008.59;4898157;29;20400;-72
2022/05/23 11:26:39;;;;;;;8.85;7.70;;;;;;;28.97;55.38;100004.47;4898420;29;20507;-72
2022/05/23 11:34:59;;;;;;;8.13;7.32;;;;;;;29.40;53.44;99999.47;4898303;29;20044;-71
2022/05/23 11:37:43;;;;;;;8.27;7.32;;;;;;;29.20;54.03;99993.72;4880231;29;20044;-72
2022/05/23 11:40:36;;;;;;;7.97;7.18;;;;;;;29.26;54.41;100000.47;4897878;29;20048;-73
2022/05/23 11:43:18;;;;;;;9.45;8.48;;;;;;;29.07;54.42;99991.47;4897222;29;20056;-73
2022/05/23 11:46:00;;;;;;;8.27;7.47;;;;;;;28.99;54.45;99989.16;4897643;29;20053;-72
2022/05/23 11:48:36;;;;;;;9.35;8.23;;;;;;;28.93;54.84;99986.81;4897685;29;20060;-72
2022/05/23 11:51:25;;;;;;;9.77;8.65;;;;;;;28.56;55.75;99989.25;4897572;29;20057;-72
2022/05/23 11:54:00;;;;;;;10.15;8.15;;;;;;;28.77;54.99;99987.41;4897298;29;20069;-72
2022/05/23 11:56:34;;;;;;;9.25;7.85;;;;;;;28.74;55.85;99979.00;4880772;29;20055;-72
2022/05/23 11:59:04;;;;;;;9.48;8.30;;;;;;;28.52;56.27;99974.41;4890111;29;20481;-72
2022/05/23 12:01:34;;;;;;;9.93;8.18;;;;;;;28.60;56.65;99969.50;4895988;29;20492;-72
2022/05/23 12:04:02;;;;;;;10.95;8.55;;;;;;;29.02;55.45;99971.44;4893746;29;20044;-71
2022/05/23 12:06:30;;;;;;;15.85;9.13;;;;;;;29.19;54.79;99975.22;4894351;29;20074;-72
2022/05/23 12:09:13;;;;;;;13.18;9.27;;;;;;;29.43;54.24;99967.63;4879666;29;20055;-71
2022/05/23 12:11:51;;;;;;;10.27;8.38;;;;;;;29.26;54.43;99961.03;4882555;29;20071;-72
2022/05/23 12:14:20;;;;;;;13.18;8.57;;;;;;;29.19;56.33;99958.31;4888034;29;20049;-72
2022/05/23 12:16:54;;;;;;;10.25;8.60;;;;;;;29.17;54.98;99952.31;4879230;29;20052;-72
2022/05/23 12:19:40;;;;;;;11.95;9.82;;;;;;;29.47;54.20;99959.13;4898937;29;20063;-71
2022/05/23 12:22:35;;;;;;;9.52;8.57;;;;;;;29.76;53.42;99951.03;4891798;29;20052;-71
2022/05/23 12:25:08;;;;;;;9.15;7.97;;;;;;;30.09;52.44;99942.03;4892750;29;20044;-71
2022/05/23 12:27:44;;;;;;;9.35;8.10;;;;;;;30.31;52.21;99941.63;4874784;29;20045;-71
2022/05/23 12:30:25;;;;;;;9.88;8.73;;;;;;;30.62;51.55;99952.72;4872541;29;20061;-71
2022/05/23 12:33:05;;;;;;;10.15;8.75;;;;;;;30.66;50.16;99950.63;4887742;29;20037;-71
2022/05/23 12:35:39;;;;;;;9.07;8.13;;;;;;;29.72;52.31;99964.38;4890875;29;20048;-72
2022/05/23 12:38:30;;;;;;;;;;;;;;;29.47;53.44;99957.09;4889846;29;20068;-71
2022/05/23 12:41:26;;;;;;;16.00;8.50;;;;;;;29.20;55.64;99945.81;4889799;29;20295;-71
2022/05/23 12:44:16;;;;;;;9.20;8.05;;;;;;;29.37;55.19;99941.13;4891964;29;20500;-72
2022/05/23 12:46:57;;;;;;;10.48;8.48;;;;;;;29.29;54.94;99950.94;4891636;29;20044;-72
2022/05/23 12:49:50;;;;;;;10.07;9.07;;;;;;;29.15;55.45;99941.47;4887845;29;20041;-72
2022/05/23 12:52:49;;;;;;;9.13;8.20;;;;;;;29.16;55.63;99939.44;4889948;29;20049;-71
2022/05/23 12:55:34;;;;;;;12.90;9.60;;;;;;;28.70;56.74;99928.38;4895821;29;20049;-71